Time,TemperatureF,DewpointF,PressureIn,WindDirection,WindDirectionDegrees,WindSpeedMPH,WindSpeedGustMPH,Humidity,HourlyPrecipIn,Conditions,Clouds,dailyrainin,SoftwareType,DateUTC
2013-05-10 00:04:00,64.5,61.5,29.78,ESE,102,0.0,0.0,90,0.00,,,0.00,Wunderground v.1.15,2013-05-10 05:04:00,
2013-05-10 00:10:00,64.3,61.3,29.79,ESE,102,0.0,0.0,90,0.00,,,0.00,Wunderground v.1.15,2013-05-10 05:10:00,
2013-05-10 00:20:00,64.0,61.3,29.78,ESE,102,0.0,0.0,91,0.00,,,0.00,Wunderground v.1.15,2013-05-10 05:20:00,
2013-05-10 00:25:00,63.7,61.3,29.78,ESE,102,0.0,0.0,92,0.00,,,0.00,Wunderground v.1.15,2013-05-10 05:25:00,
2013-05-10 00:35:00,63.4,61.0,29.81,ESE,116,0.0,0.0,92,0.00,,,0.00,Wunderground v.1.15,2013-05-10 05:35:00,
2013-05-10 00:40:00,63.2,60.8,29.81,SSW,203,1.0,1.0,92,0.00,,,0.00,Wunderground v.1.15,2013-05-10 05:40:00,
2013-05-10 00:50:00,63.5,61.1,29.81,SW,217,3.0,3.0,92,0.00,,,0.00,Wunderground v.1.15,2013-05-10 05:50:00,
2013-05-10 00:55:00,63.5,61.1,29.81,SSW,206,3.0,3.0,92,0.00,,,0.00,Wunderground v.1.15,2013-05-10 05:55:00,
2013-05-10 01:04:00,63.7,61.0,29.82,South,185,3.0,7.0,91,0.00,,,0.00,Wunderground v.1.15,2013-05-10 06:04:00,
2013-05-10 01:10:00,63.9,61.2,29.82,SSW,192,3.0,3.0,91,0.00,,,0.00,Wunderground v.1.15,2013-05-10 06:10:00,
2013-05-10 01:19:00,64.2,61.8,29.82,SSW,200,3.0,3.0,92,0.00,,,0.00,Wunderground v.1.15,2013-05-10 06:19:00,
2013-05-10 01:25:00,64.3,61.9,29.82,South,188,4.0,5.0,92,0.00,,,0.00,Wunderground v.1.15,2013-05-10 06:25:00,
2013-05-10 01:35:00,64.5,61.8,29.81,SSW,209,4.0,4.0,91,0.00,,,0.00,Wunderground v.1.15,2013-05-10 06:35:00,
2013-05-10 01:40:00,64.5,61.8,29.81,SSW,208,3.0,3.0,91,0.00,,,0.00,Wunderground v.1.15,2013-05-10 06:40:00,
2013-05-10 01:50:00,64.3,61.3,29.81,SSW,208,2.0,4.0,90,0.00,,,0.00,Wunderground v.1.15,2013-05-10 06:50:00,
2013-05-10 01:55:00,64.2,61.2,29.81,SSW,210,3.0,4.0,90,0.00,,,0.00,Wunderground v.1.15,2013-05-10 06:55:00,
2013-05-10 02:04:00,64.2,60.9,29.80,SSW,208,4.0,7.0,89,0.00,,,0.00,Wunderground v.1.15,2013-05-10 07:04:00,
2013-05-10 02:10:00,64.2,60.6,29.80,SSW,205,3.0,6.0,88,0.00,,,0.00,Wunderground v.1.15,2013-05-10 07:10:00,
2013-05-10 02:19:00,63.9,60.0,29.80,SW,222,4.0,7.0,87,0.00,,,0.00,Wunderground v.1.15,2013-05-10 07:19:00,
2013-05-10 02:25:00,63.7,59.8,29.80,SW,229,5.0,7.0,87,0.00,,,0.01,Wunderground v.1.15,2013-05-10 07:25:00,
2013-05-10 02:34:00,63.4,59.1,29.79,SW,229,4.0,6.0,86,0.00,,,0.01,Wunderground v.1.15,2013-05-10 07:34:00,
2013-05-10 02:40:00,63.2,58.9,29.79,SW,227,3.0,3.0,86,0.00,,,0.01,Wunderground v.1.15,2013-05-10 07:40:00,
2013-05-10 02:50:00,63.1,58.8,29.80,SW,230,3.0,4.0,86,0.00,,,0.01,Wunderground v.1.15,2013-05-10 07:50:00,
2013-05-10 02:55:00,63.1,58.8,29.80,SW,230,2.0,4.0,86,0.00,,,0.01,Wunderground v.1.15,2013-05-10 07:55:00,
2013-05-10 03:05:00,62.9,58.6,29.82,SW,230,0.0,1.0,86,0.00,,,0.01,Wunderground v.1.15,2013-05-10 08:05:00,
2013-05-10 03:10:00,62.7,58.5,29.82,SW,230,0.0,0.0,86,0.00,,,0.01,Wunderground v.1.15,2013-05-10 08:10:00,
2013-05-10 03:20:00,62.3,58.4,29.84,SW,230,0.0,0.0,87,0.00,,,0.01,Wunderground v.1.15,2013-05-10 08:20:00,
2013-05-10 03:25:00,62.0,58.4,29.84,SSW,192,1.0,2.0,88,0.00,,,0.01,Wunderground v.1.15,2013-05-10 08:25:00,
2013-05-10 03:34:00,61.5,58.2,29.84,SSW,193,1.0,1.0,89,0.00,,,0.01,Wunderground v.1.15,2013-05-10 08:34:00,
2013-05-10 03:40:00,61.3,58.0,29.85,SSW,193,0.0,0.0,89,0.00,,,0.01,Wunderground v.1.15,2013-05-10 08:40:00,
2013-05-10 03:49:00,60.9,57.6,29.85,SSW,193,0.0,0.0,89,0.00,,,0.01,Wunderground v.1.15,2013-05-10 08:49:00,
2013-05-10 03:55:00,60.7,57.7,29.85,SSW,193,0.0,0.0,90,0.00,,,0.01,Wunderground v.1.15,2013-05-10 08:55:00,
2013-05-10 04:04:00,60.7,58.1,29.84,SSW,195,0.0,0.0,91,0.00,,,0.01,Wunderground v.1.15,2013-05-10 09:04:00,
2013-05-10 04:10:00,61.0,58.7,29.83,SSW,195,0.0,0.0,92,0.00,,,0.01,Wunderground v.1.15,2013-05-10 09:10:00,
2013-05-10 04:20:00,61.3,59.3,29.83,SSW,195,1.0,1.0,93,0.00,,,0.01,Wunderground v.1.15,2013-05-10 09:20:00,
2013-05-10 04:25:00,61.6,59.6,29.82,SSW,195,0.0,1.0,93,0.00,,,0.01,Wunderground v.1.15,2013-05-10 09:25:00,
2013-05-10 04:34:00,62.0,60.3,29.83,SSW,195,1.0,5.0,94,0.00,,,0.01,Wunderground v.1.15,2013-05-10 09:34:00,
2013-05-10 04:40:00,62.1,60.4,29.83,SSW,196,1.0,1.0,94,0.00,,,0.01,Wunderground v.1.15,2013-05-10 09:40:00,
2013-05-10 04:49:00,62.4,60.7,29.83,SSW,195,0.0,0.0,94,0.00,,,0.01,Wunderground v.1.15,2013-05-10 09:49:00,
2013-05-10 04:55:00,62.6,60.8,29.83,SSW,195,0.0,0.0,94,0.00,,,0.01,Wunderground v.1.15,2013-05-10 09:55:00,
2013-05-10 05:04:00,62.7,60.9,29.88,NW,309,3.0,12.0,94,0.00,,,0.01,Wunderground v.1.15,2013-05-10 10:04:00,
2013-05-10 05:10:00,62.7,60.6,29.88,NNW,329,5.0,5.0,93,1.37,,,0.03,Wunderground v.1.15,2013-05-10 10:10:00,
2013-05-10 05:20:00,62.4,60.3,29.88,NW,312,2.0,2.0,93,0.18,,,0.13,Wunderground v.1.15,2013-05-10 10:20:00,
2013-05-10 05:25:00,62.3,60.6,29.87,NW,304,1.0,2.0,94,0.07,,,0.13,Wunderground v.1.15,2013-05-10 10:25:00,
2013-05-10 05:34:00,62.0,60.3,29.87,NW,309,2.0,6.0,94,0.00,,,0.13,Wunderground v.1.15,2013-05-10 10:34:00,
2013-05-10 05:40:00,61.6,59.9,29.88,NW,306,2.0,2.0,94,0.00,,,0.13,Wunderground v.1.15,2013-05-10 10:40:00,
2013-05-10 05:49:00,61.3,59.6,29.91,WNW,289,1.0,1.0,94,0.00,,,0.13,Wunderground v.1.15,2013-05-10 10:49:00,
2013-05-10 05:55:00,61.3,59.9,29.91,WNW,282,1.0,2.0,95,0.00,,,0.13,Wunderground v.1.15,2013-05-10 10:55:00,
2013-05-10 06:04:00,61.3,59.9,29.90,West,277,0.0,0.0,95,0.00,,,0.13,Wunderground v.1.15,2013-05-10 11:04:00,
2013-05-10 06:10:00,61.3,59.9,29.89,West,278,0.0,0.0,95,0.00,,,0.13,Wunderground v.1.15,2013-05-10 11:10:00,
2013-05-10 06:20:00,61.2,60.1,29.86,North,349,0.0,0.0,96,0.00,,,0.13,Wunderground v.1.15,2013-05-10 11:20:00,
2013-05-10 06:25:00,61.2,60.6,29.86,North,0,2.0,2.0,98,0.00,,,0.13,Wunderground v.1.15,2013-05-10 11:25:00,
2013-05-10 06:35:00,61.2,60.6,29.88,North,0,0.0,6.0,98,0.00,,,0.13,Wunderground v.1.15,2013-05-10 11:35:00,
2013-05-10 06:40:00,61.3,60.7,29.90,NW,319,3.0,4.0,98,0.00,,,0.13,Wunderground v.1.15,2013-05-10 11:40:00,
2013-05-10 06:50:00,61.3,61.0,29.87,NNW,332,6.0,6.0,99,0.00,,,0.13,Wunderground v.1.15,2013-05-10 11:50:00,
2013-05-10 06:55:00,61.5,61.2,29.89,NW,312,4.0,6.0,99,0.00,,,0.14,Wunderground v.1.15,2013-05-10 11:55:00,
2013-05-10 07:05:00,61.6,61.3,29.93,NW,304,6.0,7.0,99,0.00,,,0.14,Wunderground v.1.15,2013-05-10 12:05:00,
2013-05-10 07:10:00,61.8,61.5,29.91,NW,311,5.0,10.0,99,0.00,,,0.14,Wunderground v.1.15,2013-05-10 12:10:00,
2013-05-10 07:20:00,62.3,62.0,29.93,NW,313,7.0,7.0,99,0.00,,,0.15,Wunderground v.1.15,2013-05-10 12:20:00,
2013-05-10 07:25:00,62.4,62.1,29.93,NW,309,4.0,7.0,99,0.00,,,0.15,Wunderground v.1.15,2013-05-10 12:25:00,
2013-05-10 07:34:00,62.7,62.7,29.93,NNW,337,7.0,12.0,100,0.05,,,0.16,Wunderground v.1.15,2013-05-10 12:34:00,
2013-05-10 07:40:00,62.9,62.9,29.94,NNW,342,8.0,20.0,100,0.07,,,0.17,Wunderground v.1.15,2013-05-10 12:40:00,
2013-05-10 07:49:00,63.1,63.1,29.94,NW,304,10.0,16.0,100,0.07,,,0.18,Wunderground v.1.15,2013-05-10 12:49:00,
2013-05-10 07:55:00,63.1,63.1,29.94,NW,326,7.0,16.0,100,0.06,,,0.19,Wunderground v.1.15,2013-05-10 12:55:00,
2013-05-10 08:05:00,62.9,62.9,29.94,NW,318,7.0,11.0,100,0.08,,,0.20,Wunderground v.1.15,2013-05-10 13:05:00,
2013-05-10 08:10:00,62.9,62.9,29.94,NW,323,6.0,10.0,100,0.20,,,0.22,Wunderground v.1.15,2013-05-10 13:10:00,
2013-05-10 08:20:00,62.7,62.7,29.94,NNW,344,3.0,3.0,100,0.21,,,0.24,Wunderground v.1.15,2013-05-10 13:20:00,
2013-05-10 08:25:00,62.6,62.6,29.95,NW,319,1.0,3.0,100,0.15,,,0.26,Wunderground v.1.15,2013-05-10 13:25:00,
2013-05-10 08:35:00,62.6,62.6,29.96,SW,226,0.0,0.0,100,0.10,,,0.27,Wunderground v.1.15,2013-05-10 13:35:00,
2013-05-10 08:40:00,62.6,62.6,29.94,SW,217,1.0,1.0,100,0.05,,,0.27,Wunderground v.1.15,2013-05-10 13:40:00,
2013-05-10 08:49:00,62.6,62.6,29.87,ESE,106,3.0,3.0,100,0.11,,,0.29,Wunderground v.1.15,2013-05-10 13:49:00,
2013-05-10 08:55:00,62.6,62.6,29.86,ESE,102,1.0,3.0,100,0.06,,,0.29,Wunderground v.1.15,2013-05-10 13:55:00,
2013-05-10 09:04:00,62.7,62.7,29.89,NNW,343,1.0,1.0,100,0.00,,,0.29,Wunderground v.1.15,2013-05-10 14:04:00,
2013-05-10 09:10:00,62.7,62.7,29.90,North,352,1.0,1.0,100,0.00,,,0.29,Wunderground v.1.15,2013-05-10 14:10:00,
2013-05-10 09:19:00,62.7,62.7,29.89,North,359,1.0,1.0,100,0.00,,,0.29,Wunderground v.1.15,2013-05-10 14:19:00,
2013-05-10 09:25:00,63.4,63.4,29.89,North,0,2.0,3.0,100,0.00,,,0.29,Wunderground v.1.15,2013-05-10 14:25:00,
2013-05-10 09:34:00,64.5,64.5,29.90,North,0,3.0,3.0,100,0.00,,,0.29,Wunderground v.1.15,2013-05-10 14:34:00,
2013-05-10 09:40:00,64.7,64.7,29.90,North,7,3.0,8.0,100,0.00,,,0.29,Wunderground v.1.15,2013-05-10 14:40:00,
2013-05-10 09:49:00,65.8,65.8,29.88,NNE,25,4.0,7.0,100,0.00,,,0.29,Wunderground v.1.15,2013-05-10 14:49:00,
2013-05-10 09:55:00,66.0,66.0,29.89,NNE,23,3.0,7.0,100,0.00,,,0.29,Wunderground v.1.15,2013-05-10 14:55:00,
2013-05-10 10:05:00,65.6,63.8,29.87,NNE,23,1.0,2.0,94,0.00,,,0.29,Wunderground v.1.15,2013-05-10 15:05:00,
2013-05-10 10:10:00,65.5,63.7,29.89,NNE,16,0.0,2.0,94,0.00,,,0.29,Wunderground v.1.15,2013-05-10 15:10:00,
2013-05-10 10:20:00,66.8,65.0,29.89,North,11,3.0,3.0,94,0.00,,,0.29,Wunderground v.1.15,2013-05-10 15:20:00,
2013-05-10 10:25:00,67.6,65.2,29.89,North,10,3.0,4.0,92,0.00,,,0.29,Wunderground v.1.15,2013-05-10 15:25:00,
2013-05-10 10:34:00,68.9,65.5,29.88,North,0,2.0,16.0,89,0.00,,,0.29,Wunderground v.1.15,2013-05-10 15:34:00,
2013-05-10 10:40:00,69.6,65.2,29.88,NNE,18,4.0,4.0,86,0.00,,,0.29,Wunderground v.1.15,2013-05-10 15:40:00,
2013-05-10 10:49:00,69.9,64.5,29.88,North,0,3.0,3.0,83,0.00,,,0.29,Wunderground v.1.15,2013-05-10 15:49:00,
2013-05-10 10:55:00,69.8,64.7,29.88,NNE,21,3.0,3.0,84,0.00,,,0.29,Wunderground v.1.15,2013-05-10 15:55:00,
2013-05-10 11:05:00,70.3,64.5,29.90,North,0,4.0,6.0,82,0.00,,,0.29,Wunderground v.1.15,2013-05-10 16:05:00,
2013-05-10 11:10:00,70.4,63.9,29.90,North,0,4.0,4.0,80,0.00,,,0.29,Wunderground v.1.15,2013-05-10 16:10:00,
2013-05-10 11:20:00,70.8,64.7,29.89,North,0,2.0,2.0,81,0.00,,,0.29,Wunderground v.1.15,2013-05-10 16:20:00,
2013-05-10 11:25:00,71.1,65.7,29.89,North,3,2.0,6.0,83,0.00,,,0.29,Wunderground v.1.15,2013-05-10 16:25:00,
2013-05-10 11:34:00,72.1,64.9,29.88,North,11,1.0,2.0,78,0.00,,,0.29,Wunderground v.1.15,2013-05-10 16:34:00,
2013-05-10 11:40:00,72.5,64.5,29.88,North,11,1.0,1.0,76,0.00,,,0.29,Wunderground v.1.15,2013-05-10 16:40:00,
2013-05-10 11:50:00,73.9,65.1,29.88,North,6,1.0,2.0,74,0.00,,,0.29,Wunderground v.1.15,2013-05-10 16:50:00,
2013-05-10 11:55:00,74.6,64.2,29.88,North,0,2.0,2.0,70,0.00,,,0.29,Wunderground v.1.15,2013-05-10 16:55:00,
2013-05-10 12:05:00,75.6,63.9,29.88,North,0,3.0,7.0,67,0.00,,,0.29,Wunderground v.1.15,2013-05-10 17:05:00,
2013-05-10 12:10:00,76.0,64.7,29.87,NNE,20,4.0,4.0,68,0.00,,,0.29,Wunderground v.1.15,2013-05-10 17:10:00,
2013-05-10 12:19:00,77.2,65.0,29.87,NNE,20,2.0,6.0,66,0.00,,,0.29,Wunderground v.1.15,2013-05-10 17:19:00,
2013-05-10 12:25:00,77.6,64.0,29.87,North,4,3.0,6.0,63,0.00,,,0.29,Wunderground v.1.15,2013-05-10 17:25:00,
2013-05-10 12:34:00,78.5,65.8,29.87,NNE,17,3.0,5.0,65,0.00,,,0.29,Wunderground v.1.15,2013-05-10 17:34:00,
2013-05-10 12:40:00,79.2,65.1,29.87,NNE,18,2.0,3.0,62,0.00,,,0.29,Wunderground v.1.15,2013-05-10 17:40:00,
2013-05-10 12:49:00,79.9,63.8,29.87,ENE,64,2.0,2.0,58,0.00,,,0.29,Wunderground v.1.15,2013-05-10 17:49:00,
2013-05-10 12:55:00,80.3,63.7,29.87,NE,52,2.0,2.0,57,0.00,,,0.29,Wunderground v.1.15,2013-05-10 17:55:00,
2013-05-10 13:04:00,80.9,64.7,29.87,NNE,27,2.0,5.0,58,0.00,,,0.29,Wunderground v.1.15,2013-05-10 18:04:00,
2013-05-10 13:10:00,80.9,64.7,29.87,NNE,16,1.0,1.0,58,0.00,,,0.29,Wunderground v.1.15,2013-05-10 18:10:00,
2013-05-10 13:19:00,80.9,62.7,29.87,NNE,14,1.0,1.0,54,0.00,,,0.29,Wunderground v.1.15,2013-05-10 18:19:00,
2013-05-10 13:25:00,81.2,63.5,29.87,NNE,14,0.0,1.0,55,0.00,,,0.29,Wunderground v.1.15,2013-05-10 18:25:00,
2013-05-10 13:34:00,81.8,63.0,29.87,NNE,17,1.0,1.0,53,0.00,,,0.29,Wunderground v.1.15,2013-05-10 18:34:00,
2013-05-10 13:40:00,81.8,57.8,29.87,North,11,2.0,5.0,44,0.00,,,0.29,Wunderground v.1.15,2013-05-10 18:40:00,
2013-05-10 13:50:00,82.8,59.9,29.87,NNE,31,3.0,3.0,46,0.00,,,0.29,Wunderground v.1.15,2013-05-10 18:50:00,
2013-05-10 13:55:00,83.4,60.4,29.87,NNE,31,2.0,3.0,46,0.00,,,0.29,Wunderground v.1.15,2013-05-10 18:55:00,
2013-05-10 14:05:00,84.3,60.6,29.87,NNE,31,1.0,1.0,45,0.00,,,0.29,Wunderground v.1.15,2013-05-10 19:05:00,
2013-05-10 14:10:00,84.5,58.2,29.86,NNE,28,1.0,1.0,41,0.00,,,0.29,Wunderground v.1.15,2013-05-10 19:10:00,
2013-05-10 14:20:00,84.5,55.4,29.86,NNE,30,1.0,2.0,37,0.00,,,0.29,Wunderground v.1.15,2013-05-10 19:20:00,
2013-05-10 14:25:00,84.3,58.0,29.86,NNE,30,0.0,2.0,41,0.00,,,0.29,Wunderground v.1.15,2013-05-10 19:25:00,
2013-05-10 14:34:00,84.7,59.1,29.85,North,11,2.0,2.0,42,0.00,,,0.29,Wunderground v.1.15,2013-05-10 19:34:00,
2013-05-10 14:40:00,84.9,58.6,29.85,North,11,0.0,1.0,41,0.00,,,0.29,Wunderground v.1.15,2013-05-10 19:40:00,
2013-05-10 14:49:00,85.9,56.6,29.85,NNE,14,0.0,1.0,37,0.00,,,0.29,Wunderground v.1.15,2013-05-10 19:49:00,
2013-05-10 14:55:00,85.9,56.6,29.85,NNE,13,1.0,1.0,37,0.00,,,0.29,Wunderground v.1.15,2013-05-10 19:55:00,
2013-05-10 15:05:00,86.7,56.6,29.84,NNE,31,1.0,2.0,36,0.00,,,0.29,Wunderground v.1.15,2013-05-10 20:05:00,
2013-05-10 15:10:00,87.2,59.2,29.84,NE,34,1.0,1.0,39,0.00,,,0.29,Wunderground v.1.15,2013-05-10 20:10:00,
2013-05-10 15:20:00,87.4,57.2,29.83,NNE,31,0.0,3.0,36,0.00,,,0.29,Wunderground v.1.15,2013-05-10 20:20:00,
2013-05-10 15:25:00,87.0,56.8,29.83,NNE,32,1.0,3.0,36,0.00,,,0.29,Wunderground v.1.15,2013-05-10 20:25:00,
2013-05-10 15:34:00,86.7,55.8,29.82,NE,34,0.0,1.0,35,0.00,,,0.29,Wunderground v.1.15,2013-05-10 20:34:00,
2013-05-10 15:40:00,87.6,56.6,29.82,NE,34,0.0,0.0,35,0.00,,,0.29,Wunderground v.1.15,2013-05-10 20:40:00,
2013-05-10 15:49:00,87.8,59.0,29.81,East,80,1.0,1.0,38,0.00,,,0.29,Wunderground v.1.15,2013-05-10 20:49:00,
2013-05-10 15:55:00,87.0,60.5,29.81,East,89,4.0,4.0,41,0.00,,,0.29,Wunderground v.1.15,2013-05-10 20:55:00,
2013-05-10 16:04:00,85.5,61.1,29.81,East,86,4.0,7.0,44,0.00,,,0.29,Wunderground v.1.15,2013-05-10 21:04:00,
2013-05-10 16:10:00,84.9,63.0,29.81,ENE,66,6.0,6.0,48,0.00,,,0.29,Wunderground v.1.15,2013-05-10 21:10:00,
2013-05-10 16:20:00,84.7,62.2,29.81,East,92,4.0,4.0,47,0.00,,,0.29,Wunderground v.1.15,2013-05-10 21:20:00,
2013-05-10 16:25:00,84.1,63.5,29.81,East,88,3.0,4.0,50,0.00,,,0.29,Wunderground v.1.15,2013-05-10 21:25:00,
2013-05-10 16:34:00,83.2,62.6,29.81,East,96,2.0,2.0,50,0.00,,,0.29,Wunderground v.1.15,2013-05-10 21:34:00,
2013-05-10 16:40:00,82.6,62.6,29.81,ENE,73,3.0,3.0,51,0.00,,,0.29,Wunderground v.1.15,2013-05-10 21:40:00,
2013-05-10 16:49:00,82.4,63.0,29.81,ENE,71,1.0,1.0,52,0.00,,,0.29,Wunderground v.1.15,2013-05-10 21:49:00,
2013-05-10 16:55:00,82.4,62.5,29.81,East,79,2.0,2.0,51,0.00,,,0.29,Wunderground v.1.15,2013-05-10 21:55:00,
2013-05-10 17:00:00,82.2,63.4,29.81,East,83,2.0,2.0,53,0.00,,,0.29,Wunderground v.1.15,2013-05-10 22:00:00,
2013-05-10 17:05:00,81.8,63.0,29.81,East,83,4.0,4.0,53,0.00,,,0.29,Wunderground v.1.15,2013-05-10 22:05:00,
2013-05-10 17:10:00,81.1,62.3,29.81,ENE,72,4.0,4.0,53,0.00,,,0.29,Wunderground v.1.15,2013-05-10 22:10:00,
2013-05-10 17:20:00,80.3,62.7,29.81,ENE,75,1.0,1.0,55,0.00,,,0.29,Wunderground v.1.15,2013-05-10 22:20:00,
2013-05-10 17:25:00,80.3,63.2,29.80,ENE,78,1.0,4.0,56,0.00,,,0.29,Wunderground v.1.15,2013-05-10 22:25:00,
2013-05-10 17:34:00,79.6,63.0,29.80,ENE,72,4.0,4.0,57,0.00,,,0.29,Wunderground v.1.15,2013-05-10 22:34:00,
2013-05-10 17:40:00,79.4,63.3,29.80,ENE,66,4.0,4.0,58,0.00,,,0.29,Wunderground v.1.15,2013-05-10 22:40:00,
2013-05-10 17:44:00,79.2,63.6,29.80,NE,38,2.0,4.0,59,0.00,,,0.29,Wunderground v.1.15,2013-05-10 22:44:00,
2013-05-10 17:49:00,78.8,62.8,29.80,NE,55,2.0,2.0,58,0.00,,,0.29,Wunderground v.1.15,2013-05-10 22:49:00,
2013-05-10 17:55:00,78.6,63.1,29.80,ENE,68,1.0,7.0,59,0.00,,,0.29,Wunderground v.1.15,2013-05-10 22:55:00,
2013-05-10 18:04:00,78.5,63.5,29.80,ENE,71,3.0,3.0,60,0.00,,,0.29,Wunderground v.1.15,2013-05-10 23:04:00,
2013-05-10 18:10:00,78.3,63.3,29.80,ENE,75,2.0,2.0,60,0.00,,,0.29,Wunderground v.1.15,2013-05-10 23:10:00,
2013-05-10 18:19:00,78.1,64.0,29.80,ENE,61,1.0,2.0,62,0.00,,,0.29,Wunderground v.1.15,2013-05-10 23:19:00,
2013-05-10 18:25:00,77.9,63.8,29.81,East,95,1.0,2.0,62,0.00,,,0.29,Wunderground v.1.15,2013-05-10 23:25:00,
2013-05-10 18:35:00,77.7,63.6,29.80,East,96,1.0,1.0,62,0.00,,,0.29,Wunderground v.1.15,2013-05-10 23:35:00,
2013-05-10 18:40:00,77.6,63.5,29.80,East,96,1.0,1.0,62,0.00,,,0.29,Wunderground v.1.15,2013-05-10 23:40:00,
2013-05-10 18:50:00,77.2,63.6,29.81,East,99,0.0,1.0,63,0.00,,,0.29,Wunderground v.1.15,2013-05-10 23:50:00,
2013-05-10 18:55:00,77.0,63.9,29.82,East,99,0.0,1.0,64,0.00,,,0.29,Wunderground v.1.15,2013-05-10 23:55:00,
2013-05-10 19:04:00,76.7,64.9,29.85,NNW,330,0.0,8.0,67,0.00,,,0.29,Wunderground v.1.15,2013-05-11 00:04:00,
2013-05-10 19:10:00,74.6,65.4,29.86,WNW,296,3.0,3.0,73,0.00,,,0.30,Wunderground v.1.15,2013-05-11 00:10:00,
2013-05-10 19:20:00,67.3,62.3,29.92,WNW,291,4.0,4.0,84,2.85,,,0.63,Wunderground v.1.15,2013-05-11 00:20:00,
2013-05-10 19:25:00,65.2,61.2,29.92,WNW,289,3.0,4.0,87,0.91,,,0.85,Wunderground v.1.15,2013-05-11 00:25:00,
2013-05-10 19:35:00,63.5,61.1,29.92,West,274,2.0,3.0,92,0.53,,,1.14,Wunderground v.1.15,2013-05-11 00:35:00,
2013-05-10 19:40:00,63.5,61.4,29.94,NW,309,2.0,2.0,93,0.15,,,1.15,Wunderground v.1.15,2013-05-11 00:40:00,
2013-05-10 19:50:00,64.0,62.5,29.97,North,352,1.0,3.0,95,0.35,,,1.19,Wunderground v.1.15,2013-05-11 00:50:00,
2013-05-10 19:55:00,64.0,62.5,29.98,North,4,2.0,6.0,95,0.32,,,1.25,Wunderground v.1.15,2013-05-11 00:55:00,
2013-05-10 20:05:00,63.1,61.6,29.99,North,349,4.0,6.0,95,0.10,,,1.28,Wunderground v.1.15,2013-05-11 01:05:00,
2013-05-10 20:10:00,62.7,61.2,29.99,North,349,3.0,3.0,95,0.10,,,1.28,Wunderground v.1.15,2013-05-11 01:10:00,
2013-05-10 20:20:00,62.6,62.0,29.99,North,349,0.0,0.0,98,0.05,,,1.29,Wunderground v.1.15,2013-05-11 01:20:00,
2013-05-10 20:25:00,62.6,62.6,29.98,North,349,0.0,0.0,100,0.06,,,1.30,Wunderground v.1.15,2013-05-11 01:25:00,
2013-05-10 20:35:00,62.4,62.4,29.99,North,349,0.0,0.0,100,0.06,,,1.30,Wunderground v.1.15,2013-05-11 01:35:00,
2013-05-10 20:40:00,62.6,62.6,30.00,North,349,0.0,0.0,100,0.04,,,1.30,Wunderground v.1.15,2013-05-11 01:40:00,
2013-05-10 20:50:00,62.4,62.4,30.01,North,349,0.0,0.0,100,0.00,,,1.30,Wunderground v.1.15,2013-05-11 01:50:00,
2013-05-10 20:55:00,62.4,62.4,30.01,North,349,0.0,0.0,100,0.00,,,1.30,Wunderground v.1.15,2013-05-11 01:55:00,
2013-05-10 21:05:00,62.3,62.3,30.00,North,350,0.0,4.0,100,0.00,,,1.30,Wunderground v.1.15,2013-05-11 02:05:00,
2013-05-10 21:10:00,62.0,62.0,29.99,North,0,1.0,1.0,100,0.00,,,1.30,Wunderground v.1.15,2013-05-11 02:10:00,
2013-05-10 21:20:00,61.5,61.5,29.99,NNW,342,0.0,0.0,100,0.00,,,1.30,Wunderground v.1.15,2013-05-11 02:20:00,
2013-05-10 21:25:00,61.3,61.3,29.99,NNW,343,0.0,0.0,100,0.00,,,1.30,Wunderground v.1.15,2013-05-11 02:25:00,
2013-05-10 21:35:00,61.2,61.2,29.99,NNW,344,0.0,0.0,100,0.00,,,1.30,Wunderground v.1.15,2013-05-11 02:35:00,
2013-05-10 21:40:00,61.2,61.2,29.99,NNW,344,0.0,0.0,100,0.00,,,1.30,Wunderground v.1.15,2013-05-11 02:40:00,
2013-05-10 21:50:00,61.0,61.0,29.99,NNW,344,0.0,0.0,100,0.00,,,1.30,Wunderground v.1.15,2013-05-11 02:50:00,
2013-05-10 21:55:00,61.0,61.0,29.99,NNW,346,0.0,0.0,100,0.00,,,1.30,Wunderground v.1.15,2013-05-11 02:55:00,
2013-05-10 22:05:00,60.9,60.9,29.98,NNW,346,1.0,4.0,100,0.00,,,1.30,Wunderground v.1.15,2013-05-11 03:05:00,
2013-05-10 22:10:00,60.7,60.7,29.98,NNW,346,1.0,1.0,100,0.00,,,1.30,Wunderground v.1.15,2013-05-11 03:10:00,
2013-05-10 22:20:00,60.5,60.5,29.98,NNW,347,0.0,0.0,100,0.00,,,1.30,Wunderground v.1.15,2013-05-11 03:20:00,
2013-05-10 22:25:00,60.5,60.5,29.97,NNW,346,0.0,0.0,100,0.00,,,1.30,Wunderground v.1.15,2013-05-11 03:25:00,
2013-05-10 22:35:00,60.4,60.4,29.98,NNW,347,0.0,0.0,100,0.00,,,1.30,Wunderground v.1.15,2013-05-11 03:35:00,
2013-05-10 22:40:00,60.4,60.4,29.98,North,349,0.0,0.0,100,0.00,,,1.30,Wunderground v.1.15,2013-05-11 03:40:00,
2013-05-10 22:50:00,60.1,60.1,29.97,North,349,0.0,0.0,100,0.00,,,1.30,Wunderground v.1.15,2013-05-11 03:50:00,
2013-05-10 22:55:00,59.9,59.9,29.97,North,350,0.0,0.0,100,0.00,,,1.30,Wunderground v.1.15,2013-05-11 03:55:00,
2013-05-10 23:05:00,59.6,59.6,29.96,North,352,0.0,0.0,100,0.00,,,1.30,Wunderground v.1.15,2013-05-11 04:05:00,
2013-05-10 23:10:00,59.3,59.3,29.96,North,352,0.0,0.0,100,0.00,,,1.30,Wunderground v.1.15,2013-05-11 04:10:00,
2013-05-10 23:15:00,59.2,59.2,29.96,North,352,0.0,0.0,100,0.00,,,1.30,Wunderground v.1.15,2013-05-11 04:15:00,
2013-05-10 23:20:00,58.9,58.9,29.98,North,352,0.0,0.0,100,0.00,,,1.30,Wunderground v.1.15,2013-05-11 04:20:00,
2013-05-10 23:25:00,58.6,58.6,29.98,North,352,0.0,0.0,100,0.00,,,1.30,Wunderground v.1.15,2013-05-11 04:25:00,
2013-05-10 23:35:00,58.6,58.6,29.97,North,352,0.0,0.0,100,0.00,,,1.30,Wunderground v.1.15,2013-05-11 04:35:00,
2013-05-10 23:40:00,58.9,58.9,29.97,North,352,0.0,0.0,100,0.00,,,1.30,Wunderground v.1.15,2013-05-11 04:40:00,
2013-05-10 23:45:00,59.2,59.2,29.97,North,352,0.0,3.0,100,0.00,,,1.30,Wunderground v.1.15,2013-05-11 04:45:00,
2013-05-10 23:50:00,59.3,59.3,29.97,North,359,1.0,1.0,100,0.00,,,1.30,Wunderground v.1.15,2013-05-11 04:50:00,
2013-05-10 23:55:00,59.5,59.5,29.96,North,359,1.0,1.0,100,0.00,,,1.30,Wunderground v.1.15,2013-05-11 04:55:00,